sensor_id;sensor_type;location;lat;lon;timestamp;P1;durP1;ratioP1;P2;durP2;ratioP2
75499;SDS011;64076;51.466;7.260;2024-03-25T00:01:02;7.93;;;3.28;;
75499;SDS011;64076;51.466;7.260;2024-03-25T00:03:27;7.17;;;3.40;;
75499;SDS011;64076;51.466;7.260;2024-03-25T00:05:53;7.57;;;3.20;;
75499;SDS011;64076;51.466;7.260;2024-03-25T00:08:18;7.97;;;3.50;;
75499;SDS011;64076;51.466;7.260;2024-03-25T00:10:44;7.55;;;3.90;;
75499;SDS011;64076;51.466;7.260;2024-03-25T00:13:09;6.37;;;3.13;;
75499;SDS011;64076;51.466;7.260;2024-03-25T00:15:39;7.18;;;3.47;;
75499;SDS011;64076;51.466;7.260;2024-03-25T00:18:05;7.30;;;3.20;;
75499;SDS011;64076;51.466;7.260;2024-03-25T00:20:30;6.35;;;3.55;;
75499;SDS011;64076;51.466;7.260;2024-03-25T00:22:56;7.50;;;3.33;;
75499;SDS011;64076;51.466;7.260;2024-03-25T00:25:21;9.23;;;3.37;;
75499;SDS011;64076;51.466;7.260;2024-03-25T00:27:47;6.80;;;2.95;;
75499;SDS011;64076;51.466;7.260;2024-03-25T00:30:13;7.70;;;3.17;;
75499;SDS011;64076;51.466;7.260;2024-03-25T00:32:38;6.57;;;2.75;;
75499;SDS011;64076;51.466;7.260;2024-03-25T00:35:04;10.20;;;4.00;;
75499;SDS011;64076;51.466;7.260;2024-03-25T00:37:31;6.88;;;3.60;;
75499;SDS011;64076;51.466;7.260;2024-03-25T00:39:56;7.75;;;3.80;;
75499;SDS011;64076;51.466;7.260;2024-03-25T00:42:22;7.63;;;3.42;;
75499;SDS011;64076;51.466;7.260;2024-03-25T00:44:48;7.53;;;3.57;;
75499;SDS011;64076;51.466;7.260;2024-03-25T00:47:13;7.37;;;3.30;;
75499;SDS011;64076;51.466;7.260;2024-03-25T00:49:39;8.02;;;3.75;;
75499;SDS011;64076;51.466;7.260;2024-03-25T00:52:04;7.40;;;3.33;;
75499;SDS011;64076;51.466;7.260;2024-03-25T00:54:30;7.20;;;3.37;;
75499;SDS011;64076;51.466;7.260;2024-03-25T00:56:55;6.15;;;3.55;;
75499;SDS011;64076;51.466;7.260;2024-03-25T00:59:21;6.13;;;3.20;;
75499;SDS011;64076;51.466;7.260;2024-03-25T01:01:47;6.15;;;3.53;;
75499;SDS011;64076;51.466;7.260;2024-03-25T01:04:12;7.47;;;3.80;;
75499;SDS011;64076;51.466;7.260;2024-03-25T01:06:38;7.37;;;3.43;;
75499;SDS011;64076;51.466;7.260;2024-03-25T01:09:03;8.43;;;3.53;;
75499;SDS011;64076;51.466;7.260;2024-03-25T01:11:32;8.90;;;3.60;;
75499;SDS011;64076;51.466;7.260;2024-03-25T01:13:58;6.75;;;3.33;;
75499;SDS011;64076;51.466;7.260;2024-03-25T01:16:24;7.75;;;3.92;;
75499;SDS011;64076;51.466;7.260;2024-03-25T01:21:46;8.05;;;4.10;;
75499;SDS011;64076;51.466;7.260;2024-03-25T01:24:12;6.93;;;3.80;;
75499;SDS011;64076;51.466;7.260;2024-03-25T01:26:37;7.95;;;3.78;;
75499;SDS011;64076;51.466;7.260;2024-03-25T01:29:03;7.73;;;4.10;;
75499;SDS011;64076;51.466;7.260;2024-03-25T01:31:28;8.77;;;4.03;;
75499;SDS011;64076;51.466;7.260;2024-03-25T01:33:54;7.60;;;3.87;;
75499;SDS011;64076;51.466;7.260;2024-03-25T01:36:20;6.65;;;3.50;;
75499;SDS011;64076;51.466;7.260;2024-03-25T01:38:45;7.65;;;4.18;;
75499;SDS011;64076;51.466;7.260;2024-03-25T01:41:11;6.23;;;3.47;;
75499;SDS011;64076;51.466;7.260;2024-03-25T01:43:40;10.10;;;4.00;;
75499;SDS011;64076;51.466;7.260;2024-03-25T01:46:05;6.47;;;3.47;;
75499;SDS011;64076;51.466;7.260;2024-03-25T01:48:32;7.33;;;3.60;;
75499;SDS011;64076;51.466;7.260;2024-03-25T01:50:58;7.95;;;4.30;;
75499;SDS011;64076;51.466;7.260;2024-03-25T01:53:25;7.20;;;4.20;;
75499;SDS011;64076;51.466;7.260;2024-03-25T01:55:51;8.60;;;4.00;;
75499;SDS011;64076;51.466;7.260;2024-03-25T01:58:20;10.30;;;4.03;;
75499;SDS011;64076;51.466;7.260;2024-03-25T02:00:46;10.10;;;4.57;;
75499;SDS011;64076;51.466;7.260;2024-03-25T02:03:15;8.82;;;4.10;;
75499;SDS011;64076;51.466;7.260;2024-03-25T02:05:41;10.93;;;4.50;;
75499;SDS011;64076;51.466;7.260;2024-03-25T02:08:07;8.63;;;4.13;;
75499;SDS011;64076;51.466;7.260;2024-03-25T02:10:34;9.00;;;4.07;;
75499;SDS011;64076;51.466;7.260;2024-03-25T02:13:00;9.15;;;4.00;;
75499;SDS011;64076;51.466;7.260;2024-03-25T02:15:26;8.55;;;4.55;;
75499;SDS011;64076;51.466;7.260;2024-03-25T02:17:52;8.40;;;4.43;;
75499;SDS011;64076;51.466;7.260;2024-03-25T02:20:17;8.88;;;4.63;;
75499;SDS011;64076;51.466;7.260;2024-03-25T02:22:43;9.23;;;4.50;;
75499;SDS011;64076;51.466;7.260;2024-03-25T02:25:09;10.15;;;5.10;;
75499;SDS011;64076;51.466;7.260;2024-03-25T02:27:36;8.63;;;4.33;;
75499;SDS011;64076;51.466;7.260;2024-03-25T02:30:06;9.70;;;4.47;;
75499;SDS011;64076;51.466;7.260;2024-03-25T02:32:37;10.00;;;4.72;;
75499;SDS011;64076;51.466;7.260;2024-03-25T02:35:04;7.80;;;4.47;;
75499;SDS011;64076;51.466;7.260;2024-03-25T02:37:32;9.73;;;4.80;;
75499;SDS011;64076;51.466;7.260;2024-03-25T02:39:58;8.63;;;4.00;;
75499;SDS011;64076;51.466;7.260;2024-03-25T02:42:30;9.57;;;4.50;;
75499;SDS011;64076;51.466;7.260;2024-03-25T02:44:56;9.88;;;4.65;;
75499;SDS011;64076;51.466;7.260;2024-03-25T02:47:22;8.60;;;4.50;;
75499;SDS011;64076;51.466;7.260;2024-03-25T02:49:47;8.50;;;4.43;;
75499;SDS011;64076;51.466;7.260;2024-03-25T02:52:13;9.23;;;4.43;;
75499;SDS011;64076;51.466;7.260;2024-03-25T02:54:39;10.47;;;4.57;;
75499;SDS011;64076;51.466;7.260;2024-03-25T02:57:05;8.95;;;4.47;;
75499;SDS011;64076;51.466;7.260;2024-03-25T02:59:30;9.17;;;4.10;;
75499;SDS011;64076;51.466;7.260;2024-03-25T03:01:59;8.85;;;4.20;;
75499;SDS011;64076;51.466;7.260;2024-03-25T03:04:24;9.57;;;4.78;;
75499;SDS011;64076;51.466;7.260;2024-03-25T03:06:50;11.00;;;4.60;;
75499;SDS011;64076;51.466;7.260;2024-03-25T03:09:16;9.87;;;4.37;;
75499;SDS011;64076;51.466;7.260;2024-03-25T03:11:41;11.15;;;4.65;;
75499;SDS011;64076;51.466;7.260;2024-03-25T03:14:07;10.40;;;4.27;;
75499;SDS011;64076;51.466;7.260;2024-03-25T03:16:32;9.90;;;4.30;;
75499;SDS011;64076;51.466;7.260;2024-03-25T03:18:58;9.20;;;4.40;;
75499;SDS011;64076;51.466;7.260;2024-03-25T03:21:23;9.67;;;4.23;;
75499;SDS011;64076;51.466;7.260;2024-03-25T03:26:36;8.50;;;4.30;;
75499;SDS011;64076;51.466;7.260;2024-03-25T03:29:02;8.93;;;4.18;;
75499;SDS011;64076;51.466;7.260;2024-03-25T03:31:28;8.33;;;4.37;;
75499;SDS011;64076;51.466;7.260;2024-03-25T03:33:53;9.05;;;4.50;;
75499;SDS011;64076;51.466;7.260;2024-03-25T03:36:20;9.10;;;4.57;;
75499;SDS011;64076;51.466;7.260;2024-03-25T03:38:47;9.38;;;4.30;;
75499;SDS011;64076;51.466;7.260;2024-03-25T03:41:14;8.38;;;4.68;;
75499;SDS011;64076;51.466;7.260;2024-03-25T03:43:40;11.23;;;5.07;;
75499;SDS011;64076;51.466;7.260;2024-03-25T03:46:05;8.33;;;4.50;;
75499;SDS011;64076;51.466;7.260;2024-03-25T03:48:31;8.50;;;4.35;;
75499;SDS011;64076;51.466;7.260;2024-03-25T03:50:57;9.80;;;4.40;;
75499;SDS011;64076;51.466;7.260;2024-03-25T03:53:22;8.87;;;4.03;;
75499;SDS011;64076;51.466;7.260;2024-03-25T03:55:57;8.82;;;4.18;;
75499;SDS011;64076;51.466;7.260;2024-03-25T03:58:29;8.77;;;3.93;;
75499;SDS011;64076;51.466;7.260;2024-03-25T04:00:55;8.95;;;4.18;;
75499;SDS011;64076;51.466;7.260;2024-03-25T04:03:21;9.90;;;4.68;;
75499;SDS011;64076;51.466;7.260;2024-03-25T04:05:46;9.17;;;4.43;;
75499;SDS011;64076;51.466;7.260;2024-03-25T04:08:12;9.18;;;4.55;;
75499;SDS011;64076;51.466;7.260;2024-03-25T04:10:38;8.27;;;4.43;;
75499;SDS011;64076;51.466;7.260;2024-03-25T04:13:05;9.05;;;4.32;;
75499;SDS011;64076;51.466;7.260;2024-03-25T04:18:29;10.20;;;4.10;;
75499;SDS011;64076;51.466;7.260;2024-03-25T04:20:55;9.20;;;4.68;;
75499;SDS011;64076;51.466;7.260;2024-03-25T04:23:21;8.18;;;4.57;;
75499;SDS011;64076;51.466;7.260;2024-03-25T04:25:47;8.40;;;5.00;;
75499;SDS011;64076;51.466;7.260;2024-03-25T04:28:13;9.52;;;4.53;;
75499;SDS011;64076;51.466;7.260;2024-03-25T04:30:39;9.50;;;4.67;;
75499;SDS011;64076;51.466;7.260;2024-03-25T04:33:04;9.68;;;4.63;;
75499;SDS011;64076;51.466;7.260;2024-03-25T04:35:30;9.47;;;4.70;;
75499;SDS011;64076;51.466;7.260;2024-03-25T04:37:55;11.70;;;4.67;;
75499;SDS011;64076;51.466;7.260;2024-03-25T04:40:21;9.95;;;4.82;;
75499;SDS011;64076;51.466;7.260;2024-03-25T04:42:47;8.70;;;4.43;;
75499;SDS011;64076;51.466;7.260;2024-03-25T04:45:12;9.50;;;4.40;;
75499;SDS011;64076;51.466;7.260;2024-03-25T04:47:38;9.25;;;4.30;;
75499;SDS011;64076;51.466;7.260;2024-03-25T04:50:04;7.90;;;4.30;;
75499;SDS011;64076;51.466;7.260;2024-03-25T04:52:30;8.75;;;4.50;;
75499;SDS011;64076;51.466;7.260;2024-03-25T04:54:56;9.20;;;4.40;;
75499;SDS011;64076;51.466;7.260;2024-03-25T04:57:22;9.02;;;4.32;;
75499;SDS011;64076;51.466;7.260;2024-03-25T04:59:48;9.98;;;4.25;;
75499;SDS011;64076;51.466;7.260;2024-03-25T05:02:14;10.33;;;4.77;;
75499;SDS011;64076;51.466;7.260;2024-03-25T05:04:39;11.35;;;4.57;;
75499;SDS011;64076;51.466;7.260;2024-03-25T05:07:05;8.23;;;4.33;;
75499;SDS011;64076;51.466;7.260;2024-03-25T05:09:30;12.60;;;4.83;;
75499;SDS011;64076;51.466;7.260;2024-03-25T05:11:56;11.75;;;4.97;;
75499;SDS011;64076;51.466;7.260;2024-03-25T05:14:22;11.65;;;4.25;;
75499;SDS011;64076;51.466;7.260;2024-03-25T05:16:47;10.77;;;4.80;;
75499;SDS011;64076;51.466;7.260;2024-03-25T05:19:14;8.40;;;4.50;;
75499;SDS011;64076;51.466;7.260;2024-03-25T05:21:39;9.93;;;4.03;;
75499;SDS011;64076;51.466;7.260;2024-03-25T05:24:05;9.90;;;4.35;;
75499;SDS011;64076;51.466;7.260;2024-03-25T05:26:31;9.43;;;4.27;;
75499;SDS011;64076;51.466;7.260;2024-03-25T05:28:57;12.50;;;4.57;;
75499;SDS011;64076;51.466;7.260;2024-03-25T05:31:23;7.93;;;4.70;;
75499;SDS011;64076;51.466;7.260;2024-03-25T05:33:49;16.33;;;4.30;;
75499;SDS011;64076;51.466;7.260;2024-03-25T05:36:15;10.82;;;4.45;;
75499;SDS011;64076;51.466;7.260;2024-03-25T05:38:40;21.00;;;4.57;;
75499;SDS011;64076;51.466;7.260;2024-03-25T05:41:09;14.52;;;4.35;;
75499;SDS011;64076;51.466;7.260;2024-03-25T05:43:35;20.98;;;4.50;;
75499;SDS011;64076;51.466;7.260;2024-03-25T05:46:01;23.98;;;4.88;;
75499;SDS011;64076;51.466;7.260;2024-03-25T05:48:28;20.58;;;4.70;;
75499;SDS011;64076;51.466;7.260;2024-03-25T05:53:27;24.65;;;4.80;;
75499;SDS011;64076;51.466;7.260;2024-03-25T05:55:53;22.85;;;4.30;;
75499;SDS011;64076;51.466;7.260;2024-03-25T05:58:18;27.60;;;4.77;;
75499;SDS011;64076;51.466;7.260;2024-03-25T06:00:46;17.83;;;4.47;;
75499;SDS011;64076;51.466;7.260;2024-03-25T06:03:13;23.65;;;4.40;;
75499;SDS011;64076;51.466;7.260;2024-03-25T06:05:38;24.80;;;4.87;;
75499;SDS011;64076;51.466;7.260;2024-03-25T06:08:04;19.63;;;4.72;;
75499;SDS011;64076;51.466;7.260;2024-03-25T06:10:34;11.80;;;4.63;;
75499;SDS011;64076;51.466;7.260;2024-03-25T06:13:01;19.60;;;4.57;;
75499;SDS011;64076;51.466;7.260;2024-03-25T06:15:26;17.02;;;4.85;;
75499;SDS011;64076;51.466;7.260;2024-03-25T06:17:52;21.63;;;4.63;;
75499;SDS011;64076;51.466;7.260;2024-03-25T06:20:17;12.67;;;4.00;;
75499;SDS011;64076;51.466;7.260;2024-03-25T06:22:43;15.20;;;5.00;;
75499;SDS011;64076;51.466;7.260;2024-03-25T06:25:08;11.13;;;4.37;;
75499;SDS011;64076;51.466;7.260;2024-03-25T06:27:34;12.27;;;4.10;;
75499;SDS011;64076;51.466;7.260;2024-03-25T06:29:59;9.53;;;3.60;;
75499;SDS011;64076;51.466;7.260;2024-03-25T06:32:45;9.05;;;3.42;;
75499;SDS011;64076;51.466;7.260;2024-03-25T06:35:29;10.43;;;3.53;;
75499;SDS011;64076;51.466;7.260;2024-03-25T06:37:54;7.23;;;2.90;;
75499;SDS011;64076;51.466;7.260;2024-03-25T06:40:19;7.63;;;2.70;;
75499;SDS011;64076;51.466;7.260;2024-03-25T06:42:47;9.20;;;2.97;;
75499;SDS011;64076;51.466;7.260;2024-03-25T06:45:12;5.90;;;2.85;;
75499;SDS011;64076;51.466;7.260;2024-03-25T06:47:40;5.97;;;2.50;;
75499;SDS011;64076;51.466;7.260;2024-03-25T06:50:05;6.83;;;2.60;;
75499;SDS011;64076;51.466;7.260;2024-03-25T06:52:31;6.22;;;2.53;;
75499;SDS011;64076;51.466;7.260;2024-03-25T06:54:57;3.70;;;1.80;;
75499;SDS011;64076;51.466;7.260;2024-03-25T06:57:22;4.13;;;2.40;;
75499;SDS011;64076;51.466;7.260;2024-03-25T06:59:48;4.47;;;2.03;;
75499;SDS011;64076;51.466;7.260;2024-03-25T07:02:13;5.17;;;1.80;;
75499;SDS011;64076;51.466;7.260;2024-03-25T07:04:41;5.10;;;2.03;;
75499;SDS011;64076;51.466;7.260;2024-03-25T07:07:07;4.13;;;1.70;;
75499;SDS011;64076;51.466;7.260;2024-03-25T07:09:33;4.10;;;1.67;;
75499;SDS011;64076;51.466;7.260;2024-03-25T07:11:59;3.40;;;1.80;;
75499;SDS011;64076;51.466;7.260;2024-03-25T07:14:24;3.67;;;1.37;;
75499;SDS011;64076;51.466;7.260;2024-03-25T07:16:50;4.25;;;1.70;;
75499;SDS011;64076;51.466;7.260;2024-03-25T07:19:15;4.57;;;2.00;;
75499;SDS011;64076;51.466;7.260;2024-03-25T07:21:41;3.47;;;1.43;;
75499;SDS011;64076;51.466;7.260;2024-03-25T07:24:07;3.53;;;1.73;;
75499;SDS011;64076;51.466;7.260;2024-03-25T07:26:32;3.60;;;1.40;;
75499;SDS011;64076;51.466;7.260;2024-03-25T07:28:58;3.40;;;1.52;;
75499;SDS011;64076;51.466;7.260;2024-03-25T07:31:23;2.90;;;1.50;;
75499;SDS011;64076;51.466;7.260;2024-03-25T07:33:49;2.90;;;1.20;;
75499;SDS011;64076;51.466;7.260;2024-03-25T07:36:14;3.38;;;1.40;;
75499;SDS011;64076;51.466;7.260;2024-03-25T07:38:40;3.87;;;1.37;;
75499;SDS011;64076;51.466;7.260;2024-03-25T07:41:05;4.20;;;1.37;;
75499;SDS011;64076;51.466;7.260;2024-03-25T07:43:31;4.03;;;1.65;;
75499;SDS011;64076;51.466;7.260;2024-03-25T07:45:56;3.20;;;1.30;;
75499;SDS011;64076;51.466;7.260;2024-03-25T07:48:22;3.77;;;1.67;;
75499;SDS011;64076;51.466;7.260;2024-03-25T07:50:48;4.70;;;1.23;;
75499;SDS011;64076;51.466;7.260;2024-03-25T07:53:13;4.83;;;1.50;;
75499;SDS011;64076;51.466;7.260;2024-03-25T07:55:39;4.93;;;1.42;;
75499;SDS011;64076;51.466;7.260;2024-03-25T07:58:05;10.53;;;1.87;;
75499;SDS011;64076;51.466;7.260;2024-03-25T08:00:30;5.15;;;1.17;;
75499;SDS011;64076;51.466;7.260;2024-03-25T08:02:56;8.33;;;1.57;;
75499;SDS011;64076;51.466;7.260;2024-03-25T08:05:21;6.23;;;1.10;;
75499;SDS011;64076;51.466;7.260;2024-03-25T08:07:47;7.10;;;1.60;;
75499;SDS011;64076;51.466;7.260;2024-03-25T08:10:13;4.37;;;1.27;;
75499;SDS011;64076;51.466;7.260;2024-03-25T08:12:38;5.68;;;1.80;;
75499;SDS011;64076;51.466;7.260;2024-03-25T08:15:04;7.93;;;1.60;;
75499;SDS011;64076;51.466;7.260;2024-03-25T08:17:30;4.10;;;1.25;;
75499;SDS011;64076;51.466;7.260;2024-03-25T08:19:55;5.07;;;1.33;;
75499;SDS011;64076;51.466;7.260;2024-03-25T08:22:21;4.80;;;1.27;;
75499;SDS011;64076;51.466;7.260;2024-03-25T08:24:46;6.97;;;1.30;;
75499;SDS011;64076;51.466;7.260;2024-03-25T08:27:12;3.67;;;1.42;;
75499;SDS011;64076;51.466;7.260;2024-03-25T08:29:38;8.43;;;1.50;;
75499;SDS011;64076;51.466;7.260;2024-03-25T08:32:04;4.90;;;1.35;;
75499;SDS011;64076;51.466;7.260;2024-03-25T08:34:30;4.35;;;1.30;;
75499;SDS011;64076;51.466;7.260;2024-03-25T08:36:56;4.20;;;0.90;;
75499;SDS011;64076;51.466;7.260;2024-03-25T08:39:22;6.57;;;1.10;;
75499;SDS011;64076;51.466;7.260;2024-03-25T08:41:48;4.55;;;1.20;;
75499;SDS011;64076;51.466;7.260;2024-03-25T08:44:14;2.40;;;1.02;;
75499;SDS011;64076;51.466;7.260;2024-03-25T08:46:40;4.00;;;1.27;;
75499;SDS011;64076;51.466;7.260;2024-03-25T08:49:06;3.35;;;0.85;;
75499;SDS011;64076;51.466;7.260;2024-03-25T08:51:32;2.40;;;0.90;;
75499;SDS011;64076;51.466;7.260;2024-03-25T08:53:58;5.05;;;1.38;;
75499;SDS011;64076;51.466;7.260;2024-03-25T08:56:24;2.97;;;1.00;;
75499;SDS011;64076;51.466;7.260;2024-03-25T08:58:50;6.53;;;1.13;;
75499;SDS011;64076;51.466;7.260;2024-03-25T09:01:19;3.03;;;0.82;;
75499;SDS011;64076;51.466;7.260;2024-03-25T09:03:45;2.50;;;1.17;;
75499;SDS011;64076;51.466;7.260;2024-03-25T09:06:11;2.07;;;0.80;;
75499;SDS011;64076;51.466;7.260;2024-03-25T09:08:37;2.25;;;0.82;;
75499;SDS011;64076;51.466;7.260;2024-03-25T09:11:23;3.08;;;1.08;;
75499;SDS011;64076;51.466;7.260;2024-03-25T09:13:50;2.42;;;0.70;;
75499;SDS011;64076;51.466;7.260;2024-03-25T09:16:16;2.17;;;1.03;;
75499;SDS011;64076;51.466;7.260;2024-03-25T09:18:42;2.35;;;0.82;;
75499;SDS011;64076;51.466;7.260;2024-03-25T09:21:08;1.85;;;0.70;;
75499;SDS011;64076;51.466;7.260;2024-03-25T09:23:34;1.60;;;0.50;;
75499;SDS011;64076;51.466;7.260;2024-03-25T09:26:00;2.08;;;0.70;;
75499;SDS011;64076;51.466;7.260;2024-03-25T09:28:26;2.08;;;0.73;;
75499;SDS011;64076;51.466;7.260;2024-03-25T09:30:51;2.30;;;1.02;;
75499;SDS011;64076;51.466;7.260;2024-03-25T09:33:17;1.60;;;0.70;;
75499;SDS011;64076;51.466;7.260;2024-03-25T09:35:44;2.10;;;0.80;;
75499;SDS011;64076;51.466;7.260;2024-03-25T09:38:10;2.17;;;0.90;;
75499;SDS011;64076;51.466;7.260;2024-03-25T09:40:36;2.67;;;0.88;;
75499;SDS011;64076;51.466;7.260;2024-03-25T09:43:05;2.60;;;1.10;;
75499;SDS011;64076;51.466;7.260;2024-03-25T09:45:32;2.67;;;0.60;;
75499;SDS011;64076;51.466;7.260;2024-03-25T09:47:59;2.08;;;0.80;;
75499;SDS011;64076;51.466;7.260;2024-03-25T09:50:25;2.55;;;1.00;;
75499;SDS011;64076;51.466;7.260;2024-03-25T09:52:51;1.97;;;0.77;;
75499;SDS011;64076;51.466;7.260;2024-03-25T09:55:17;2.47;;;0.77;;
75499;SDS011;64076;51.466;7.260;2024-03-25T09:57:43;1.87;;;0.63;;
75499;SDS011;64076;51.466;7.260;2024-03-25T10:00:09;2.17;;;0.75;;
75499;SDS011;64076;51.466;7.260;2024-03-25T10:02:39;1.83;;;0.90;;
75499;SDS011;64076;51.466;7.260;2024-03-25T10:05:05;4.10;;;0.90;;
75499;SDS011;64076;51.466;7.260;2024-03-25T10:07:32;2.67;;;1.23;;
75499;SDS011;64076;51.466;7.260;2024-03-25T10:09:58;1.70;;;0.60;;
75499;SDS011;64076;51.466;7.260;2024-03-25T10:12:24;1.75;;;0.70;;
75499;SDS011;64076;51.466;7.260;2024-03-25T10:14:50;1.75;;;0.70;;
75499;SDS011;64076;51.466;7.260;2024-03-25T10:17:15;2.47;;;1.03;;
75499;SDS011;64076;51.466;7.260;2024-03-25T10:19:41;1.77;;;0.70;;
75499;SDS011;64076;51.466;7.260;2024-03-25T10:22:15;4.90;;;1.00;;
75499;SDS011;64076;51.466;7.260;2024-03-25T10:24:45;2.08;;;0.90;;
75499;SDS011;64076;51.466;7.260;2024-03-25T10:27:16;2.23;;;0.80;;
75499;SDS011;64076;51.466;7.260;2024-03-25T10:29:45;2.00;;;0.80;;
75499;SDS011;64076;51.466;7.260;2024-03-25T10:32:16;1.52;;;0.73;;
75499;SDS011;64076;51.466;7.260;2024-03-25T10:34:42;1.87;;;0.80;;
75499;SDS011;64076;51.466;7.260;2024-03-25T10:37:08;1.60;;;0.60;;
75499;SDS011;64076;51.466;7.260;2024-03-25T10:39:35;1.83;;;0.90;;
75499;SDS011;64076;51.466;7.260;2024-03-25T10:42:08;1.58;;;0.70;;
75499;SDS011;64076;51.466;7.260;2024-03-25T10:44:38;1.70;;;0.68;;
75499;SDS011;64076;51.466;7.260;2024-03-25T10:47:05;2.53;;;0.70;;
75499;SDS011;64076;51.466;7.260;2024-03-25T10:49:45;2.22;;;0.70;;
75499;SDS011;64076;51.466;7.260;2024-03-25T10:52:14;2.20;;;0.80;;
75499;SDS011;64076;51.466;7.260;2024-03-25T10:54:49;2.15;;;0.90;;
75499;SDS011;64076;51.466;7.260;2024-03-25T10:57:15;2.90;;;0.80;;
75499;SDS011;64076;51.466;7.260;2024-03-25T10:59:42;1.98;;;1.00;;
75499;SDS011;64076;51.466;7.260;2024-03-25T11:02:09;2.03;;;0.60;;
75499;SDS011;64076;51.466;7.260;2024-03-25T11:04:35;1.67;;;0.50;;
75499;SDS011;64076;51.466;7.260;2024-03-25T11:07:11;1.80;;;0.60;;
75499;SDS011;64076;51.466;7.260;2024-03-25T11:09:40;2.63;;;0.80;;
75499;SDS011;64076;51.466;7.260;2024-03-25T11:12:09;1.98;;;0.80;;
75499;SDS011;64076;51.466;7.260;2024-03-25T11:14:35;2.20;;;0.53;;
75499;SDS011;64076;51.466;7.260;2024-03-25T11:17:01;1.95;;;0.70;;
75499;SDS011;64076;51.466;7.260;2024-03-25T11:19:28;2.70;;;0.90;;
75499;SDS011;64076;51.466;7.260;2024-03-25T11:22:06;1.20;;;0.52;;
75499;SDS011;64076;51.466;7.260;2024-03-25T11:24:32;2.90;;;0.57;;
75499;SDS011;64076;51.466;7.260;2024-03-25T11:27:00;2.15;;;0.90;;
75499;SDS011;64076;51.466;7.260;2024-03-25T11:29:26;2.00;;;0.70;;
75499;SDS011;64076;51.466;7.260;2024-03-25T11:31:52;2.42;;;0.80;;
75499;SDS011;64076;51.466;7.260;2024-03-25T11:34:19;2.13;;;0.80;;
75499;SDS011;64076;51.466;7.260;2024-03-25T11:36:45;1.80;;;0.80;;
75499;SDS011;64076;51.466;7.260;2024-03-25T11:39:12;2.65;;;1.00;;
75499;SDS011;64076;51.466;7.260;2024-03-25T11:41:41;2.28;;;0.90;;
75499;SDS011;64076;51.466;7.260;2024-03-25T11:44:08;3.00;;;0.70;;
75499;SDS011;64076;51.466;7.260;2024-03-25T11:46:36;2.13;;;0.73;;
75499;SDS011;64076;51.466;7.260;2024-03-25T11:49:03;2.83;;;1.08;;
75499;SDS011;64076;51.466;7.260;2024-03-25T11:51:33;3.40;;;1.13;;
75499;SDS011;64076;51.466;7.260;2024-03-25T11:53:59;1.93;;;1.00;;
75499;SDS011;64076;51.466;7.260;2024-03-25T11:56:28;2.33;;;1.00;;
75499;SDS011;64076;51.466;7.260;2024-03-25T11:58:55;2.28;;;1.23;;
75499;SDS011;64076;51.466;7.260;2024-03-25T12:01:21;2.67;;;1.00;;
75499;SDS011;64076;51.466;7.260;2024-03-25T12:03:51;1.90;;;0.90;;
75499;SDS011;64076;51.466;7.260;2024-03-25T12:06:17;1.80;;;0.88;;
75499;SDS011;64076;51.466;7.260;2024-03-25T12:08:42;1.70;;;0.57;;
75499;SDS011;64076;51.466;7.260;2024-03-25T12:11:31;1.38;;;0.70;;
75499;SDS011;64076;51.466;7.260;2024-03-25T12:13:57;2.05;;;0.80;;
75499;SDS011;64076;51.466;7.260;2024-03-25T12:16:24;1.85;;;0.70;;
75499;SDS011;64076;51.466;7.260;2024-03-25T12:18:49;1.87;;;0.60;;
75499;SDS011;64076;51.466;7.260;2024-03-25T12:21:15;2.00;;;0.90;;
75499;SDS011;64076;51.466;7.260;2024-03-25T12:23:42;2.20;;;0.82;;
75499;SDS011;64076;51.466;7.260;2024-03-25T12:26:08;2.10;;;0.80;;
75499;SDS011;64076;51.466;7.260;2024-03-25T12:28:34;2.63;;;0.90;;
75499;SDS011;64076;51.466;7.260;2024-03-25T12:31:06;1.90;;;0.77;;
75499;SDS011;64076;51.466;7.260;2024-03-25T12:33:42;3.05;;;0.98;;
75499;SDS011;64076;51.466;7.260;2024-03-25T12:36:13;1.40;;;0.60;;
75499;SDS011;64076;51.466;7.260;2024-03-25T12:38:39;1.95;;;0.75;;
75499;SDS011;64076;51.466;7.260;2024-03-25T12:41:08;2.25;;;0.50;;
75499;SDS011;64076;51.466;7.260;2024-03-25T12:43:36;1.43;;;0.60;;
75499;SDS011;64076;51.466;7.260;2024-03-25T12:46:08;2.13;;;0.75;;
75499;SDS011;64076;51.466;7.260;2024-03-25T12:48:35;1.92;;;0.60;;
75499;SDS011;64076;51.466;7.260;2024-03-25T12:51:01;2.08;;;0.90;;
75499;SDS011;64076;51.466;7.260;2024-03-25T12:53:26;2.37;;;0.60;;
75499;SDS011;64076;51.466;7.260;2024-03-25T12:55:52;1.77;;;0.70;;
75499;SDS011;64076;51.466;7.260;2024-03-25T12:58:17;1.30;;;0.57;;
75499;SDS011;64076;51.466;7.260;2024-03-25T13:00:43;1.30;;;0.50;;
75499;SDS011;64076;51.466;7.260;2024-03-25T13:03:09;1.98;;;0.75;;
75499;SDS011;64076;51.466;7.260;2024-03-25T13:05:35;2.20;;;0.80;;
75499;SDS011;64076;51.466;7.260;2024-03-25T13:08:01;1.77;;;0.77;;
75499;SDS011;64076;51.466;7.260;2024-03-25T13:10:27;1.40;;;0.55;;
75499;SDS011;64076;51.466;7.260;2024-03-25T13:12:54;1.48;;;0.60;;
75499;SDS011;64076;51.466;7.260;2024-03-25T13:15:20;1.80;;;0.70;;
75499;SDS011;64076;51.466;7.260;2024-03-25T13:17:45;1.70;;;0.60;;
75499;SDS011;64076;51.466;7.260;2024-03-25T13:20:12;2.08;;;0.57;;
75499;SDS011;64076;51.466;7.260;2024-03-25T13:22:38;1.75;;;0.60;;
75499;SDS011;64076;51.466;7.260;2024-03-25T13:25:05;1.30;;;0.50;;
75499;SDS011;64076;51.466;7.260;2024-03-25T13:27:31;1.85;;;0.70;;
75499;SDS011;64076;51.466;7.260;2024-03-25T13:29:57;1.60;;;0.43;;
75499;SDS011;64076;51.466;7.260;2024-03-25T13:32:23;1.70;;;0.88;;
75499;SDS011;64076;51.466;7.260;2024-03-25T13:34:50;2.37;;;0.50;;
75499;SDS011;64076;51.466;7.260;2024-03-25T13:37:16;1.63;;;0.60;;
75499;SDS011;64076;51.466;7.260;2024-03-25T13:39:41;2.03;;;0.75;;
75499;SDS011;64076;51.466;7.260;2024-03-25T13:42:07;1.50;;;0.50;;
75499;SDS011;64076;51.466;7.260;2024-03-25T13:44:33;1.52;;;0.55;;
75499;SDS011;64076;51.466;7.260;2024-03-25T13:46:59;2.33;;;0.53;;
75499;SDS011;64076;51.466;7.260;2024-03-25T13:49:24;1.90;;;0.60;;
75499;SDS011;64076;51.466;7.260;2024-03-25T13:51:56;1.67;;;0.60;;
75499;SDS011;64076;51.466;7.260;2024-03-25T13:54:35;2.00;;;0.57;;
75499;SDS011;64076;51.466;7.260;2024-03-25T13:57:00;2.40;;;0.50;;
75499;SDS011;64076;51.466;7.260;2024-03-25T13:59:26;1.63;;;0.57;;
75499;SDS011;64076;51.466;7.260;2024-03-25T14:01:51;2.03;;;0.70;;
75499;SDS011;64076;51.466;7.260;2024-03-25T14:04:18;1.83;;;0.70;;
75499;SDS011;64076;51.466;7.260;2024-03-25T14:06:45;1.85;;;0.65;;
75499;SDS011;64076;51.466;7.260;2024-03-25T14:09:24;2.70;;;0.80;;
75499;SDS011;64076;51.466;7.260;2024-03-25T14:11:50;2.40;;;0.93;;
75499;SDS011;64076;51.466;7.260;2024-03-25T14:14:15;2.35;;;0.80;;
75499;SDS011;64076;51.466;7.260;2024-03-25T14:16:41;1.67;;;0.70;;
75499;SDS011;64076;51.466;7.260;2024-03-25T14:19:07;1.50;;;0.60;;
75499;SDS011;64076;51.466;7.260;2024-03-25T14:21:32;1.60;;;0.80;;
75499;SDS011;64076;51.466;7.260;2024-03-25T14:23:58;1.40;;;0.70;;
75499;SDS011;64076;51.466;7.260;2024-03-25T14:26:23;2.63;;;0.70;;
75499;SDS011;64076;51.466;7.260;2024-03-25T14:28:49;1.37;;;0.60;;
75499;SDS011;64076;51.466;7.260;2024-03-25T14:31:14;1.37;;;0.60;;
75499;SDS011;64076;51.466;7.260;2024-03-25T14:33:40;1.50;;;0.65;;
75499;SDS011;64076;51.466;7.260;2024-03-25T14:36:06;1.47;;;0.70;;
75499;SDS011;64076;51.466;7.260;2024-03-25T14:38:31;1.73;;;0.70;;
75499;SDS011;64076;51.466;7.260;2024-03-25T14:40:58;2.53;;;0.98;;
75499;SDS011;64076;51.466;7.260;2024-03-25T14:43:23;3.00;;;0.70;;
75499;SDS011;64076;51.466;7.260;2024-03-25T14:45:49;1.83;;;0.77;;
75499;SDS011;64076;51.466;7.260;2024-03-25T14:48:14;2.23;;;0.50;;
75499;SDS011;64076;51.466;7.260;2024-03-25T14:50:40;1.95;;;0.60;;
75499;SDS011;64076;51.466;7.260;2024-03-25T14:53:05;1.77;;;0.83;;